Latest Weather Observations for Port Macquarie Airport

IDN60801

Issued at 5:43 pm EDT Monday 17 January 2022 (issued every 10 minutes, with the page automatically refreshed every 10 minutes)

About weather observations | Map of weather stations | Latest weather observations for NSW | Other Formats
Station Details ID: 060168 Name: PORT MACQUARIE AIRPORT AWS Lat: -31.43 Lon: 152.87 Height: 4.45 m
Data from the previous 72 hours. | See also: Recent months at Port Macquarie Airport
Date/Time
EDT
Temp
°C
App
Temp
°C
Dew
Point
°C
Rel
Hum
%
Delta-T
°C
Wind Press
QNH
hPa
Press
MSL
hPa
Rain since
9am
mm
Dir  Spd
km/h
Gust
km/h
Spd
kts
Gust
kts
17/05:30pm 27.7 28.6 23.3 77 3.0 NE 24 33 13 18 1009.1 1009.1 0.0
17/05:00pm 28.3 29.8 23.7 76 3.2 NNE 22 33 12 18 1008.9 1008.9 0.0
17/04:30pm 28.3 29.4 23.7 76 3.2 NE 24 35 13 19 1009.0 1009.0 0.0
17/04:00pm 28.4 29.4 24.2 78 2.9 NE 26 37 14 20 1009.1 1009.1 0.0
17/03:30pm 28.9 30.6 24.0 75 3.4 NE 22 32 12 17 1009.3 1009.3 0.0
17/03:00pm 28.6 29.0 23.7 75 3.4 NE 28 37 15 20 1009.5 1009.5 0.0
17/02:30pm 28.7 29.9 24.5 78 2.9 ENE 26 37 14 20 1009.6 1009.6 0.0
17/02:00pm 28.8 30.0 23.9 75 3.4 ENE 24 32 13 17 1009.7 1009.7 0.0
17/01:30pm 29.4 30.7 23.4 70 4.1 ENE 22 30 12 16 1010.1 1010.1 0.0
17/01:00pm 28.2 28.7 23.3 75 3.4 ENE 26 33 14 18 1010.5 1010.5 0.0
17/12:30pm 28.4 29.9 23.1 73 3.6 ENE 20 26 11 14 1010.5 1010.5 0.0
17/12:00pm 28.3 29.5 22.5 71 3.9 E 20 24 11 13 1010.4 1010.4 0.0
17/11:30am 28.1 30.6 23.2 74 3.3 ENE 15 20 8 11 1010.7 1010.7 0.0
17/11:00am 28.2 31.6 22.7 72 3.7 NE 9 17 5 9 1010.7 1010.7 0.0
17/10:30am 28.0 31.5 22.9 74 3.5 NE 9 15 5 8 1010.8 1010.8 0.0
17/10:00am 27.1 30.6 22.1 74 3.4 NNW 7 13 4 7 1011.0 1011.0 0.0
17/09:30am 25.4 28.9 22.1 82 2.2 N 7 11 4 6 1011.1 1011.1 0.0
17/09:06am 24.4 28.2 22.7 90 1.1 NW 7 11 4 6 1011.3 1011.3 0.0
17/09:00am 23.8 27.5 22.6 93 0.8 NW 7 11 4 6 1011.3 1011.3 0.0
17/08:30am 22.3 25.6 21.8 97 0.3 WNW 7 11 4 6 1011.4 1011.4 0.0
17/08:28am 22.0 25.4 22.0 100 0.0 WNW 7 11 4 6 1011.3 1011.3 0.0
17/08:00am 21.5 25.2 21.5 100 0.0 WNW 4 7 2 4 1011.0 1011.0 0.0
17/07:30am 21.0 23.9 21.0 100 0.0 WNW 7 9 4 5 1011.0 1011.0 0.0
17/07:00am 20.7 23.4 20.7 100 0.0 WNW 7 9 4 5 1010.3 1010.3 0.0
17/06:38am 20.7 24.8 20.7 100 0.0 CALM 0 0 0 0 1010.7 1010.7 0.0
17/06:36am 20.6 24.6 20.6 100 0.0 CALM 0 0 0 0 1010.6 1010.6 0.0
17/06:30am 20.5 24.1 20.5 100 0.0 WNW 2 6 1 3 1010.1 1010.1 0.0
17/06:17am 19.4 22.7 19.2 99 0.1 CALM 0 7 0 4 1009.0 1009.0 0.0
17/06:00am 19.4 22.8 19.4 100 0.0 CALM 0 0 0 0 1009.9 1009.9 0.0
17/05:30am 19.6 23.1 19.6 100 0.0 CALM 0 0 0 0 1008.9 1008.9 0.0
17/05:05am 19.6 23.1 19.6 100 0.0 CALM 0 0 0 0 1009.7 1009.7 0.0
17/05:00am 19.6 23.0 19.4 99 0.1 CALM 0 0 0 0 1009.4 1009.4 0.0
17/04:47am 19.7 23.3 19.7 100 0.0 CALM 0 0 0 0 1009.4 1009.4 0.0
17/04:32am 20.3 24.2 20.3 100 0.0 CALM 0 0 0 0 1009.4 1009.4 0.0
17/04:30am 20.0 23.7 20.0 100 0.0 CALM 0 0 0 0 1009.5 1009.5 0.0
17/04:06am 19.7 23.3 19.7 100 0.0 CALM 0 0 0 0 1009.4 1009.4 0.0
17/04:00am 20.0 23.7 20.0 100 0.0 CALM 0 0 0 0 1009.4 1009.4 0.0
17/03:31am 20.1 23.9 20.1 100 0.0 CALM 0 0 0 0 1009.6 1009.6 0.0
17/03:30am 20.2 23.9 19.9 98 0.2 CALM 0 0 0 0 1009.6 1009.6 0.0
17/03:00am 20.4 24.2 20.2 99 0.1 CALM 0 0 0 0 1009.5 1009.5 0.0
17/02:39am 20.1 23.9 20.1 100 0.0 CALM 0 0 0 0 1009.7 1009.7 0.0
17/02:30am 20.5 24.4 20.3 99 0.1 CALM 0 0 0 0 1009.9 1009.9 0.0
17/02:28am 20.5 24.5 20.5 100 0.0 CALM 0 0 0 0 1009.9 1009.9 0.0
17/02:00am 20.7 24.7 20.5 99 0.1 CALM 0 0 0 0 1010.0 1010.0 0.0
17/01:52am 20.7 24.6 20.4 98 0.2 CALM 0 0 0 0 1010.2 1010.2 0.0
17/01:30am 21.0 25.1 20.8 99 0.1 CALM 0 0 0 0 1010.2 1010.2 0.0
17/01:10am 21.8 26.3 21.6 99 0.1 CALM 0 0 0 0 1010.1 1010.1 0.0
17/01:00am 21.4 25.8 21.4 100 0.0 CALM 0 0 0 0 1010.0 1010.0 0.0
17/12:47am 21.3 25.5 21.0 98 0.2 CALM 0 0 0 0 1010.0 1010.0 0.0
17/12:46am 21.4 25.7 21.1 98 0.2 CALM 0 0 0 0 1009.9 1009.9 0.0
17/12:30am 21.3 25.3 20.6 96 0.5 CALM 0 0 0 0 1010.3 1010.3 0.0
17/12:26am 21.4 25.5 20.7 96 0.5 CALM 0 0 0 0 1010.1 1010.1 0.0
17/12:00am 22.6 27.3 21.9 96 0.5 CALM 0 0 0 0 1010.0 1010.0 0.0
 
Date/Time
EDT
Temp
°C
App
Temp
°C
Dew
Point
°C
Rel
Hum
%
Delta-T
°C
Wind Press
QNH
hPa
Press
MSL
hPa
Rain since
9am
mm
Dir  Spd
km/h
Gust
km/h
Spd
kts
Gust
kts
16/11:30pm 22.3 26.9 21.8 97 0.3 CALM 0 0 0 0 1010.6 1010.6 0.0
16/11:00pm 22.2 26.9 22.0 99 0.1 CALM 0 0 0 0 1010.3 1010.3 0.0
16/10:30pm 22.5 27.1 21.8 96 0.5 CALM 0 0 0 0 1010.6 1010.6 0.0
16/10:00pm 22.7 27.4 22.0 96 0.5 CALM 0 0 0 0 1010.4 1010.4 0.0
16/09:30pm 22.8 27.6 22.1 96 0.5 CALM 0 0 0 0 1009.8 1009.8 0.0
16/09:00pm 23.6 28.2 21.7 89 1.3 CALM 0 0 0 0 1009.5 1009.5 0.0
16/08:30pm 24.9 28.7 22.4 86 1.7 N 6 9 3 5 1009.2 1009.2 0.0
16/08:00pm 25.6 30.7 22.7 84 2.0 CALM 0 0 0 0 1009.2 1009.2 0.0
16/07:30pm 26.0 29.6 22.1 79 2.6 N 6 9 3 5 1009.2 1009.2 0.0
16/07:00pm 26.7 31.7 23.2 81 2.4 ESE 2 6 1 3 1008.4 1008.4 0.0
16/06:30pm 26.0 29.0 21.9 78 2.7 NNE 9 13 5 7 1008.1 1008.1 0.0
16/06:00pm 26.1 29.2 22.2 79 2.6 NE 9 13 5 7 1008.1 1008.1 0.0
16/05:30pm 25.9 28.5 22.0 79 2.6 E 11 17 6 9 1007.3 1007.3 0.0
16/05:00pm 26.0 27.9 22.1 79 2.6 E 15 19 8 10 1007.4 1007.4 0.0
16/04:30pm 26.3 27.4 21.3 74 3.3 E 17 22 9 12 1007.0 1007.0 0.0
16/04:00pm 27.1 28.0 21.6 72 3.7 E 19 24 10 13 1007.0 1007.0 0.0
16/03:30pm 27.4 28.2 21.7 71 3.8 E 20 26 11 14 1006.7 1006.7 0.0
16/03:00pm 27.8 28.7 20.9 66 4.6 ESE 17 24 9 13 1006.6 1006.6 0.0
16/02:30pm 28.5 30.3 21.8 67 4.5 E 15 22 8 12 1006.8 1006.8 0.0
16/02:00pm 28.2 29.9 21.7 68 4.4 E 15 20 8 11 1006.9 1006.9 0.0
16/01:30pm 27.8 29.4 22.1 71 3.8 NE 17 20 9 11 1007.1 1007.1 0.0
16/01:00pm 27.4 28.4 21.0 68 4.2 ENE 17 24 9 13 1007.3 1007.3 0.0
16/12:30pm 27.7 28.9 21.5 69 4.1 ENE 17 20 9 11 1007.2 1007.2 0.0
16/12:00pm 27.5 28.8 20.8 67 4.4 NE 15 19 8 10 1007.4 1007.4 0.0
16/11:30am 27.5 29.8 22.0 72 3.7 NE 13 17 7 9 1007.5 1007.5 0.0
16/11:00am 27.6 29.6 20.7 66 4.6 E 11 17 6 9 1007.4 1007.4 0.0
16/10:30am 27.5 30.5 21.3 69 4.1 E 7 17 4 9 1007.5 1007.5 0.0
16/10:00am 26.8 29.8 20.9 70 3.9 SE 6 13 3 7 1007.5 1007.5 0.0
16/09:30am 25.8 28.1 20.6 73 3.4 SW 9 13 5 7 1007.5 1007.5 0.0
16/09:00am 25.1 27.7 21.2 79 2.6 S 9 13 5 7 1007.4 1007.4 4.2
16/08:30am 23.5 26.7 21.6 89 1.3 WSW 7 11 4 6 1007.2 1007.2 4.2
16/08:00am 22.6 25.5 21.1 91 1.0 WNW 7 9 4 5 1006.9 1006.9 4.2
16/07:30am 21.0 24.6 19.8 93 0.8 CALM 0 7 0 4 1006.7 1006.7 4.2
16/07:00am 19.9 22.8 19.9 100 0.0 SW 4 9 2 5 1006.4 1006.4 4.2
16/06:30am 18.8 22.0 18.8 100 0.0 CALM 0 4 0 2 1005.9 1005.9 4.2
16/06:00am 18.2 21.0 17.9 98 0.2 CALM 0 0 0 0 1005.5 1005.5 4.2
16/05:30am 18.5 21.3 18.0 97 0.3 CALM 0 0 0 0 1005.2 1005.2 4.2
16/05:00am 19.2 22.0 18.9 98 0.2 NNW 2 6 1 3 1004.8 1004.8 4.2
16/04:30am 19.7 21.2 18.9 95 0.5 N 9 13 5 7 1004.9 1004.9 4.2
16/04:00am 20.0 21.9 19.0 94 0.6 N 7 11 4 6 1004.8 1004.8 4.2
16/03:30am 20.4 21.3 19.2 93 0.8 NNE 13 17 7 9 1004.8 1004.8 4.2
16/03:00am 19.7 23.2 19.5 99 0.1 CALM 0 0 0 0 1005.0 1005.0 4.2
16/02:30am 19.9 23.3 19.4 97 0.3 CALM 0 6 0 3 1004.8 1004.8 4.2
16/02:00am 20.5 22.9 20.0 97 0.3 ENE 7 9 4 5 1005.0 1005.0 4.2
16/01:30am 20.3 23.4 20.3 100 0.0 E 4 9 2 5 1005.0 1005.0 4.2
16/01:00am 20.7 24.4 20.0 96 0.4 CALM 0 0 0 0 1004.5 1004.5 4.2
16/12:30am 21.2 23.3 18.9 87 1.4 NNW 6 9 3 5 1004.9 1004.9 4.2
16/12:00am 21.6 23.3 20.9 96 0.5 N 13 17 7 9 1004.9 1004.9 4.2
 
Date/Time
EDT
Temp
°C
App
Temp
°C
Dew
Point
°C
Rel
Hum
%
Delta-T
°C
Wind Press
QNH
hPa
Press
MSL
hPa
Rain since
9am
mm
Dir  Spd
km/h
Gust
km/h
Spd
kts
Gust
kts
15/11:30pm 21.9 22.6 20.5 92 0.9 N 17 26 9 14 1006.0 1006.0 4.2
15/11:00pm 22.2 22.9 21.2 94 0.7 N 19 26 10 14 1006.7 1006.7 4.0
15/10:30pm 22.6 23.8 21.4 93 0.8 N 17 22 9 12 1007.4 1007.4 4.0
15/10:04pm 22.7 24.3 21.5 93 0.8 N 15 24 8 13 1007.9 1007.9 4.0
15/10:00pm 22.8 24.5 21.6 93 0.8 NNE 15 24 8 13 1008.0 1008.0 4.0
15/09:57pm 22.9 24.3 21.9 94 0.7 NNE 17 24 9 13 1007.8 1007.8 4.0
15/09:47pm 23.2 24.4 21.5 90 1.1 NNE 17 22 9 12 1008.1 1008.1 3.6
15/09:44pm 23.2 24.9 21.6 91 1.1 NE 15 22 8 12 1008.1 1008.1 3.4
15/09:32pm 23.4 24.3 21.5 89 1.3 SE 19 30 10 16 1007.9 1007.9 1.0
15/09:30pm 23.1 23.8 20.4 85 1.7 SSE 17 30 9 16 1008.0 1008.0 0.6
15/09:11pm 24.2 25.6 21.1 83 2.0 W 15 26 8 14 1008.4 1008.4 0.0
15/09:10pm 24.1 25.8 21.0 83 2.0 WNW 13 24 7 13 1008.2 1008.2 0.0
15/09:00pm 24.5 26.4 20.6 79 2.6 N 11 17 6 9 1006.6 1006.6 0.0
15/08:30pm 24.7 25.3 21.0 80 2.4 NNE 19 26 10 14 1006.3 1006.3 0.0
15/08:00pm 24.9 25.1 20.2 75 3.1 NNE 19 26 10 14 1007.0 1007.0 0.0
15/07:30pm 25.0 25.9 20.0 74 3.2 NNE 15 20 8 11 1006.8 1006.8 0.0
15/07:21pm 25.2 26.1 20.0 73 3.4 NNE 15 20 8 11 1006.8 1006.8 0.0
15/07:00pm 25.3 25.4 19.9 72 3.5 NNE 19 28 10 15 1004.7 1004.7 0.0
15/06:38pm 25.7 26.0 20.3 72 3.5 NNE 19 32 10 17 1004.1 1004.1 0.0
15/06:30pm 25.9 25.9 20.9 74 3.3 NNE 22 32 12 17 1006.3 1006.3 0.0
15/06:28pm 25.9 25.9 20.9 74 3.3 NNE 22 30 12 16 1005.7 1005.7 0.0
15/06:24pm 26.1 26.0 20.7 72 3.5 NNE 22 30 12 16 1007.9 1007.9 0.0
15/06:00pm 26.3 25.6 20.2 69 4.0 N 24 33 13 18 1005.4 1005.4 0.0
15/05:30pm 26.4 25.3 20.3 69 4.0 NNE 26 35 14 19 1005.3 1005.3 0.0
15/05:00pm 27.3 26.7 20.6 67 4.4 NNE 24 37 13 20 1005.4 1005.4 0.0
15/04:30pm 25.7 25.7 19.8 70 3.8 NNE 19 32 10 17 1005.2 1005.2 0.0
15/04:00pm 25.8 25.2 20.6 73 3.4 NNE 24 33 13 18 1005.1 1005.1 0.0
15/03:30pm 25.7 25.7 20.9 75 3.2 NE 22 35 12 19 1005.4 1005.4 0.0
15/03:00pm 26.7 25.9 20.8 70 3.9 NE 26 37 14 20 1005.3 1005.3 0.0
15/02:30pm 28.4 27.5 20.7 63 5.1 NE 26 37 14 20 1005.2 1005.2 0.0
15/02:00pm 28.8 28.2 21.3 64 5.0 NE 26 33 14 18 1005.6 1005.6 0.0
15/01:30pm 29.5 30.2 22.2 65 4.9 NE 22 32 12 17 1006.1 1006.1 0.0
15/01:00pm 29.3 29.1 21.3 62 5.4 NNE 24 32 13 17 1006.3 1006.3 0.0
15/12:30pm 29.6 29.6 21.0 60 5.7 NE 22 32 12 17 1006.6 1006.6 0.0
15/12:00pm 28.6 28.4 20.6 62 5.3 NE 22 32 12 17 1006.8 1006.8 0.0
15/11:30am 28.6 28.2 20.1 60 5.6 NE 22 33 12 18 1006.9 1006.9 0.0
15/11:00am 28.4 28.4 20.2 61 5.4 N 20 28 11 15 1007.3 1007.3 0.0
15/10:30am 27.9 27.4 19.1 58 5.7 N 20 30 11 16 1007.5 1007.5 0.0
15/10:00am 27.2 26.4 19.3 62 5.1 N 22 32 12 17 1007.6 1007.6 0.0
15/09:30am 26.7 26.9 20.1 67 4.3 NNE 19 26 10 14 1007.8 1007.8 0.0
15/09:00am 25.8 25.6 19.7 69 4.0 N 20 30 11 16 1008.1 1008.1 0.0
15/08:30am 24.8 24.5 19.2 71 3.6 NNE 19 24 10 13 1008.5 1008.5 0.0
15/08:00am 23.6 23.9 19.5 78 2.6 NNE 17 26 9 14 1008.6 1008.6 0.0
15/07:30am 22.4 23.0 18.6 79 2.4 NNE 13 20 7 11 1008.7 1008.7 0.0
15/07:00am 21.7 23.4 19.4 87 1.5 N 9 15 5 8 1008.4 1008.4 0.0
15/06:30am 20.7 22.0 19.2 91 0.9 N 11 15 6 8 1008.1 1008.1 0.0
15/06:00am 20.2 21.7 19.0 93 0.8 N 9 13 5 7 1008.0 1008.0 0.0
15/05:30am 20.3 22.2 19.0 92 0.8 N 7 9 4 5 1007.6 1007.6 0.0
15/05:00am 20.8 22.6 18.7 88 1.3 NNW 7 11 4 6 1007.6 1007.6 0.0
15/04:30am 21.2 23.4 20.4 95 0.5 N 9 13 5 7 1007.5 1007.5 0.0
15/04:00am 21.5 22.7 20.0 91 1.0 N 13 15 7 8 1007.4 1007.4 0.0
15/03:30am 22.1 22.8 19.6 86 1.6 NNE 15 19 8 10 1007.5 1007.5 0.0
15/03:00am 22.1 23.5 19.6 86 1.6 N 11 15 6 8 1007.8 1007.8 0.0
15/02:30am 22.5 23.8 20.2 87 1.5 N 13 17 7 9 1008.0 1008.0 0.0
15/02:00am 22.6 23.8 19.9 85 1.7 NNE 13 19 7 10 1008.3 1008.3 0.0
15/01:30am 22.8 24.1 20.9 89 1.2 NNE 15 22 8 12 1008.6 1008.6 0.0
15/01:00am 23.1 23.6 20.1 83 1.9 N 17 22 9 12 1009.1 1009.1 0.0
15/12:30am 23.2 23.2 20.2 83 1.9 NNE 20 26 11 14 1009.4 1009.4 0.0
15/12:00am 23.4 23.8 20.7 85 1.8 NNE 19 24 10 13 1009.8 1009.8 0.0
 
Date/Time
EDT
Temp
°C
App
Temp
°C
Dew
Point
°C
Rel
Hum
%
Delta-T
°C
Wind Press
QNH
hPa
Press
MSL
hPa
Rain since
9am
mm
Dir  Spd
km/h
Gust
km/h
Spd
kts
Gust
kts
14/11:30pm 23.6 24.7 20.5 83 2.0 NNE 15 20 8 11 1010.4 1010.4 0.0
14/11:00pm 23.6 25.1 20.5 83 2.0 NNE 13 20 7 11 1010.6 1010.6 0.0
14/10:30pm 23.7 25.5 20.4 82 2.1 NNE 11 17 6 9 1010.8 1010.8 0.0
14/10:00pm 23.6 25.3 20.1 81 2.3 N 11 17 6 9 1011.0 1011.0 0.0
14/09:30pm 23.6 25.0 20.3 82 2.1 N 13 19 7 10 1010.9 1010.9 0.0
14/09:00pm 23.9 25.2 20.2 80 2.4 N 13 17 7 9 1010.8 1010.8 0.0
14/08:30pm 24.2 25.4 19.9 77 2.8 NNE 13 17 7 9 1010.7 1010.7 0.0
14/08:00pm 24.5 26.1 20.8 80 2.4 NNE 13 19 7 10 1010.6 1010.6 0.0
14/07:30pm 24.7 25.0 19.5 73 3.3 NNE 17 24 9 13 1010.4 1010.4 0.0
14/07:00pm 24.8 25.3 20.1 75 3.1 NNE 17 30 9 16 1010.1 1010.1 0.0
14/06:30pm 25.2 25.0 19.8 72 3.5 NNE 20 30 11 16 1009.8 1009.8 0.0
14/06:00pm 25.9 25.3 20.5 72 3.5 NE 24 39 13 21 1009.3 1009.3 0.0

Other formats

Comma delimited format used in spreadsheet applications
http://www.bom.gov.au/fwo/IDN60801/IDN60801.94799.axf

JavaScript Object Notation format (JSON) in row-major order
http://www.bom.gov.au/fwo/IDN60801/IDN60801.94799.json

Data quality

Most of these data are generated automatically and are frequently updated. Quality checks on data are not normally performed. It is possible for incorrect values to appear. Refer to information at About Latest Weather Observations and please check the disclaimer before using these data.